sensor_id;sensor_type;location;lat;lon;timestamp;temperature;humidity
1786;DHT22;890;48.158;11.540;2023-07-09T00:00:20;23.40;61.60
1786;DHT22;890;48.158;11.540;2023-07-09T00:02:46;23.20;61.60
1786;DHT22;890;48.158;11.540;2023-07-09T00:05:14;23.20;61.70
1786;DHT22;890;48.158;11.540;2023-07-09T00:07:41;23.20;62.00
1786;DHT22;890;48.158;11.540;2023-07-09T00:10:33;23.20;62.10
1786;DHT22;890;48.158;11.540;2023-07-09T00:13:00;23.10;62.10
1786;DHT22;890;48.158;11.540;2023-07-09T00:15:26;23.20;62.30
1786;DHT22;890;48.158;11.540;2023-07-09T00:17:52;23.10;62.40
1786;DHT22;890;48.158;11.540;2023-07-09T00:20:18;23.10;62.40
1786;DHT22;890;48.158;11.540;2023-07-09T00:22:44;23.20;62.30
1786;DHT22;890;48.158;11.540;2023-07-09T00:25:19;23.20;62.50
1786;DHT22;890;48.158;11.540;2023-07-09T00:27:45;23.10;62.60
1786;DHT22;890;48.158;11.540;2023-07-09T00:30:19;23.10;62.90
1786;DHT22;890;48.158;11.540;2023-07-09T00:32:45;23.00;63.20
1786;DHT22;890;48.158;11.540;2023-07-09T00:35:14;23.10;63.30
1786;DHT22;890;48.158;11.540;2023-07-09T00:37:43;23.10;63.20
1786;DHT22;890;48.158;11.540;2023-07-09T00:40:22;23.10;63.40
1786;DHT22;890;48.158;11.540;2023-07-09T00:42:51;22.90;63.40
1786;DHT22;890;48.158;11.540;2023-07-09T00:45:23;23.00;63.60
1786;DHT22;890;48.158;11.540;2023-07-09T00:53:26;23.00;63.90
1786;DHT22;890;48.158;11.540;2023-07-09T00:55:59;22.90;63.80
1786;DHT22;890;48.158;11.540;2023-07-09T00:58:27;23.00;64.00
1786;DHT22;890;48.158;11.540;2023-07-09T01:00:56;23.10;64.10
1786;DHT22;890;48.158;11.540;2023-07-09T01:03:31;23.10;64.10
1786;DHT22;890;48.158;11.540;2023-07-09T01:05:58;23.00;64.00
1786;DHT22;890;48.158;11.540;2023-07-09T01:08:24;23.10;64.10
1786;DHT22;890;48.158;11.540;2023-07-09T01:10:50;23.10;65.00
1786;DHT22;890;48.158;11.540;2023-07-09T01:13:16;23.10;64.40
1786;DHT22;890;48.158;11.540;2023-07-09T01:15:45;23.10;64.50
1786;DHT22;890;48.158;11.540;2023-07-09T01:18:12;23.10;64.50
1786;DHT22;890;48.158;11.540;2023-07-09T01:20:38;23.10;64.60
1786;DHT22;890;48.158;11.540;2023-07-09T01:23:04;23.10;64.70
1786;DHT22;890;48.158;11.540;2023-07-09T01:25:31;23.10;64.70
1786;DHT22;890;48.158;11.540;2023-07-09T01:27:57;22.90;64.70
1786;DHT22;890;48.158;11.540;2023-07-09T01:30:46;23.10;65.00
1786;DHT22;890;48.158;11.540;2023-07-09T01:33:11;23.00;65.00
1786;DHT22;890;48.158;11.540;2023-07-09T01:35:39;23.00;64.90
1786;DHT22;890;48.158;11.540;2023-07-09T01:38:08;23.00;65.20
1786;DHT22;890;48.158;11.540;2023-07-09T01:40:34;23.00;65.10
1786;DHT22;890;48.158;11.540;2023-07-09T01:43:02;23.00;65.50
1786;DHT22;890;48.158;11.540;2023-07-09T01:45:32;22.90;65.60
1786;DHT22;890;48.158;11.540;2023-07-09T01:47:58;22.90;65.60
1786;DHT22;890;48.158;11.540;2023-07-09T01:50:24;22.80;65.50
1786;DHT22;890;48.158;11.540;2023-07-09T01:52:50;22.70;65.20
1786;DHT22;890;48.158;11.540;2023-07-09T01:55:16;22.60;64.90
1786;DHT22;890;48.158;11.540;2023-07-09T01:57:42;22.60;65.20
1786;DHT22;890;48.158;11.540;2023-07-09T02:00:11;22.40;65.30
1786;DHT22;890;48.158;11.540;2023-07-09T02:02:37;22.40;65.50
1786;DHT22;890;48.158;11.540;2023-07-09T02:05:09;22.60;65.70
1786;DHT22;890;48.158;11.540;2023-07-09T02:07:34;22.40;66.00
1786;DHT22;890;48.158;11.540;2023-07-09T02:10:00;22.50;66.20
1786;DHT22;890;48.158;11.540;2023-07-09T02:12:26;22.40;66.30
1786;DHT22;890;48.158;11.540;2023-07-09T02:14:51;22.40;66.40
1786;DHT22;890;48.158;11.540;2023-07-09T02:17:17;22.50;66.70
1786;DHT22;890;48.158;11.540;2023-07-09T02:19:43;22.50;66.60
1786;DHT22;890;48.158;11.540;2023-07-09T02:22:09;22.60;66.70
1786;DHT22;890;48.158;11.540;2023-07-09T02:24:35;22.50;66.80
1786;DHT22;890;48.158;11.540;2023-07-09T02:27:03;22.50;66.90
1786;DHT22;890;48.158;11.540;2023-07-09T02:29:29;22.40;66.90
1786;DHT22;890;48.158;11.540;2023-07-09T02:31:57;22.50;67.00
1786;DHT22;890;48.158;11.540;2023-07-09T02:34:24;22.50;67.10
1786;DHT22;890;48.158;11.540;2023-07-09T02:36:52;22.40;67.20
1786;DHT22;890;48.158;11.540;2023-07-09T02:39:18;22.30;67.40
1786;DHT22;890;48.158;11.540;2023-07-09T02:41:44;22.30;67.60
1786;DHT22;890;48.158;11.540;2023-07-09T02:44:10;22.30;67.70
1786;DHT22;890;48.158;11.540;2023-07-09T02:46:36;22.20;67.80
1786;DHT22;890;48.158;11.540;2023-07-09T02:49:03;22.20;67.80
1786;DHT22;890;48.158;11.540;2023-07-09T02:51:30;22.30;68.00
1786;DHT22;890;48.158;11.540;2023-07-09T02:53:57;22.20;67.70
1786;DHT22;890;48.158;11.540;2023-07-09T02:56:24;22.20;67.60
1786;DHT22;890;48.158;11.540;2023-07-09T02:58:50;22.20;67.60
1786;DHT22;890;48.158;11.540;2023-07-09T03:01:16;22.10;67.90
1786;DHT22;890;48.158;11.540;2023-07-09T03:03:42;22.10;68.20
1786;DHT22;890;48.158;11.540;2023-07-09T03:06:08;22.10;68.30
1786;DHT22;890;48.158;11.540;2023-07-09T03:08:33;22.10;68.20
1786;DHT22;890;48.158;11.540;2023-07-09T03:11:00;21.90;68.10
1786;DHT22;890;48.158;11.540;2023-07-09T03:13:25;22.00;68.10
1786;DHT22;890;48.158;11.540;2023-07-09T03:15:55;22.00;67.90
1786;DHT22;890;48.158;11.540;2023-07-09T03:18:21;22.10;67.90
1786;DHT22;890;48.158;11.540;2023-07-09T03:20:46;22.00;67.60
1786;DHT22;890;48.158;11.540;2023-07-09T03:23:12;22.10;67.60
1786;DHT22;890;48.158;11.540;2023-07-09T03:25:42;22.10;67.60
1786;DHT22;890;48.158;11.540;2023-07-09T03:28:07;22.20;67.60
1786;DHT22;890;48.158;11.540;2023-07-09T03:30:33;22.20;67.70
1786;DHT22;890;48.158;11.540;2023-07-09T03:32:59;22.10;67.60
1786;DHT22;890;48.158;11.540;2023-07-09T03:35:25;22.20;67.80
1786;DHT22;890;48.158;11.540;2023-07-09T03:37:51;22.10;67.80
1786;DHT22;890;48.158;11.540;2023-07-09T03:40:22;22.10;67.90
1786;DHT22;890;48.158;11.540;2023-07-09T03:42:49;22.10;68.70
1786;DHT22;890;48.158;11.540;2023-07-09T03:45:14;22.10;67.90
1786;DHT22;890;48.158;11.540;2023-07-09T03:47:40;22.10;67.90
1786;DHT22;890;48.158;11.540;2023-07-09T03:50:09;22.10;68.20
1786;DHT22;890;48.158;11.540;2023-07-09T03:52:35;22.10;68.20
1786;DHT22;890;48.158;11.540;2023-07-09T03:55:01;22.10;68.20
1786;DHT22;890;48.158;11.540;2023-07-09T03:57:30;22.10;68.20
1786;DHT22;890;48.158;11.540;2023-07-09T03:59:55;22.10;68.50
1786;DHT22;890;48.158;11.540;2023-07-09T04:02:21;22.10;68.20
1786;DHT22;890;48.158;11.540;2023-07-09T04:04:46;22.20;68.20
1786;DHT22;890;48.158;11.540;2023-07-09T04:07:12;22.20;68.10
1786;DHT22;890;48.158;11.540;2023-07-09T04:09:38;22.20;68.20
1786;DHT22;890;48.158;11.540;2023-07-09T04:12:04;22.20;68.20
1786;DHT22;890;48.158;11.540;2023-07-09T04:14:29;22.20;68.10
1786;DHT22;890;48.158;11.540;2023-07-09T04:16:55;22.30;68.30
1786;DHT22;890;48.158;11.540;2023-07-09T04:19:21;22.30;68.20
1786;DHT22;890;48.158;11.540;2023-07-09T04:21:46;22.30;68.30
1786;DHT22;890;48.158;11.540;2023-07-09T04:24:17;22.30;68.30
1786;DHT22;890;48.158;11.540;2023-07-09T04:26:43;22.30;68.30
1786;DHT22;890;48.158;11.540;2023-07-09T04:29:09;22.30;68.20
1786;DHT22;890;48.158;11.540;2023-07-09T04:31:35;22.30;68.10
1786;DHT22;890;48.158;11.540;2023-07-09T04:34:00;22.30;68.10
1786;DHT22;890;48.158;11.540;2023-07-09T04:36:27;22.40;67.90
1786;DHT22;890;48.158;11.540;2023-07-09T04:38:52;22.40;68.00
1786;DHT22;890;48.158;11.540;2023-07-09T04:41:18;22.50;67.90
1786;DHT22;890;48.158;11.540;2023-07-09T04:43:44;22.50;67.90
1786;DHT22;890;48.158;11.540;2023-07-09T04:46:09;22.50;67.90
1786;DHT22;890;48.158;11.540;2023-07-09T04:48:35;22.60;67.70
1786;DHT22;890;48.158;11.540;2023-07-09T04:51:00;22.60;67.50
1786;DHT22;890;48.158;11.540;2023-07-09T04:53:26;22.60;67.50
1786;DHT22;890;48.158;11.540;2023-07-09T04:55:52;22.70;67.40
1786;DHT22;890;48.158;11.540;2023-07-09T04:58:18;22.80;67.30
1786;DHT22;890;48.158;11.540;2023-07-09T05:00:44;22.80;67.10
1786;DHT22;890;48.158;11.540;2023-07-09T05:03:11;22.90;67.00
1786;DHT22;890;48.158;11.540;2023-07-09T05:05:45;22.90;66.80
1786;DHT22;890;48.158;11.540;2023-07-09T05:08:12;22.90;67.40
1786;DHT22;890;48.158;11.540;2023-07-09T05:10:42;23.10;66.70
1786;DHT22;890;48.158;11.540;2023-07-09T05:13:08;23.10;66.50
1786;DHT22;890;48.158;11.540;2023-07-09T05:15:34;23.10;66.40
1786;DHT22;890;48.158;11.540;2023-07-09T05:17:59;23.20;66.40
1786;DHT22;890;48.158;11.540;2023-07-09T05:20:25;23.30;66.30
1786;DHT22;890;48.158;11.540;2023-07-09T05:22:51;23.40;66.00
1786;DHT22;890;48.158;11.540;2023-07-09T05:25:17;23.50;65.90
1786;DHT22;890;48.158;11.540;2023-07-09T05:27:43;25.70;67.80
1786;DHT22;890;48.158;11.540;2023-07-09T05:30:09;23.70;65.70
1786;DHT22;890;48.158;11.540;2023-07-09T05:32:37;23.80;65.40
1786;DHT22;890;48.158;11.540;2023-07-09T05:35:03;24.00;65.10
1786;DHT22;890;48.158;11.540;2023-07-09T05:37:29;24.10;65.10
1786;DHT22;890;48.158;11.540;2023-07-09T05:39:55;24.30;65.00
1786;DHT22;890;48.158;11.540;2023-07-09T05:42:21;24.40;64.30
1786;DHT22;890;48.158;11.540;2023-07-09T05:44:46;24.50;63.90
1786;DHT22;890;48.158;11.540;2023-07-09T05:47:12;24.60;63.60
1786;DHT22;890;48.158;11.540;2023-07-09T05:49:38;24.70;63.30
1786;DHT22;890;48.158;11.540;2023-07-09T05:52:04;24.90;63.30
1786;DHT22;890;48.158;11.540;2023-07-09T05:54:31;24.90;63.10
1786;DHT22;890;48.158;11.540;2023-07-09T05:56:56;24.90;62.70
1786;DHT22;890;48.158;11.540;2023-07-09T05:59:22;25.00;63.40
1786;DHT22;890;48.158;11.540;2023-07-09T06:01:47;25.00;62.20
1786;DHT22;890;48.158;11.540;2023-07-09T06:04:13;25.00;61.90
1786;DHT22;890;48.158;11.540;2023-07-09T06:06:39;25.00;61.80
1786;DHT22;890;48.158;11.540;2023-07-09T06:09:07;25.10;62.20
1786;DHT22;890;48.158;11.540;2023-07-09T06:11:34;25.10;62.10
1786;DHT22;890;48.158;11.540;2023-07-09T06:13:59;23.50;59.70
1786;DHT22;890;48.158;11.540;2023-07-09T06:16:25;25.30;61.30
1786;DHT22;890;48.158;11.540;2023-07-09T06:18:51;25.50;60.90
1786;DHT22;890;48.158;11.540;2023-07-09T06:21:17;25.70;60.60
1786;DHT22;890;48.158;11.540;2023-07-09T06:23:42;25.80;60.20
1786;DHT22;890;48.158;11.540;2023-07-09T06:26:08;26.00;59.90
1786;DHT22;890;48.158;11.540;2023-07-09T06:28:33;26.10;59.60
1786;DHT22;890;48.158;11.540;2023-07-09T06:30:59;26.10;59.40
1786;DHT22;890;48.158;11.540;2023-07-09T06:33:25;26.20;59.20
1786;DHT22;890;48.158;11.540;2023-07-09T06:35:57;26.40;59.00
1786;DHT22;890;48.158;11.540;2023-07-09T06:38:23;26.50;58.40
1786;DHT22;890;48.158;11.540;2023-07-09T06:40:50;26.50;58.60
1786;DHT22;890;48.158;11.540;2023-07-09T06:43:16;26.50;58.40
1786;DHT22;890;48.158;11.540;2023-07-09T06:45:49;26.50;58.30
1786;DHT22;890;48.158;11.540;2023-07-09T06:48:15;26.60;57.90
1786;DHT22;890;48.158;11.540;2023-07-09T06:50:41;26.70;58.00
1786;DHT22;890;48.158;11.540;2023-07-09T06:53:07;26.90;57.80
1786;DHT22;890;48.158;11.540;2023-07-09T06:55:33;27.00;57.60
1786;DHT22;890;48.158;11.540;2023-07-09T06:57:58;27.00;57.40
1786;DHT22;890;48.158;11.540;2023-07-09T07:00:24;27.20;57.10
1786;DHT22;890;48.158;11.540;2023-07-09T07:02:50;27.30;56.70
1786;DHT22;890;48.158;11.540;2023-07-09T07:05:16;27.30;56.60
1786;DHT22;890;48.158;11.540;2023-07-09T07:07:43;27.50;56.30
1786;DHT22;890;48.158;11.540;2023-07-09T07:10:09;27.70;56.80
1786;DHT22;890;48.158;11.540;2023-07-09T07:12:47;27.80;55.70
1786;DHT22;890;48.158;11.540;2023-07-09T07:15:15;27.90;55.00
1786;DHT22;890;48.158;11.540;2023-07-09T07:17:41;27.90;55.00
1786;DHT22;890;48.158;11.540;2023-07-09T07:20:08;28.00;54.90
1786;DHT22;890;48.158;11.540;2023-07-09T07:22:34;27.90;54.50
1786;DHT22;890;48.158;11.540;2023-07-09T07:25:00;28.00;54.30
1786;DHT22;890;48.158;11.540;2023-07-09T07:27:25;28.20;54.20
1786;DHT22;890;48.158;11.540;2023-07-09T07:29:51;28.30;53.90
1786;DHT22;890;48.158;11.540;2023-07-09T07:32:17;28.30;53.70
1786;DHT22;890;48.158;11.540;2023-07-09T07:34:43;28.40;53.50
1786;DHT22;890;48.158;11.540;2023-07-09T07:37:08;28.50;53.40
1786;DHT22;890;48.158;11.540;2023-07-09T07:39:34;27.90;52.90
1786;DHT22;890;48.158;11.540;2023-07-09T07:41:59;28.60;53.00
1786;DHT22;890;48.158;11.540;2023-07-09T07:44:25;28.70;52.90
1786;DHT22;890;48.158;11.540;2023-07-09T07:46:50;28.70;52.50
1786;DHT22;890;48.158;11.540;2023-07-09T07:49:16;28.70;52.30
1786;DHT22;890;48.158;11.540;2023-07-09T07:51:42;28.70;52.10
1786;DHT22;890;48.158;11.540;2023-07-09T07:54:07;28.90;51.90
1786;DHT22;890;48.158;11.540;2023-07-09T07:56:36;29.00;51.30
1786;DHT22;890;48.158;11.540;2023-07-09T07:59:02;29.10;50.90
1786;DHT22;890;48.158;11.540;2023-07-09T08:01:27;29.20;50.50
1786;DHT22;890;48.158;11.540;2023-07-09T08:03:53;29.30;50.10
1786;DHT22;890;48.158;11.540;2023-07-09T08:06:19;29.40;49.90
1786;DHT22;890;48.158;11.540;2023-07-09T08:08:45;29.40;49.70
1786;DHT22;890;48.158;11.540;2023-07-09T08:11:10;29.50;49.80
1786;DHT22;890;48.158;11.540;2023-07-09T08:13:37;29.40;49.30
1786;DHT22;890;48.158;11.540;2023-07-09T08:16:04;29.40;49.20
1786;DHT22;890;48.158;11.540;2023-07-09T08:18:30;29.50;49.00
1786;DHT22;890;48.158;11.540;2023-07-09T08:20:56;29.50;48.80
1786;DHT22;890;48.158;11.540;2023-07-09T08:23:21;29.60;48.50
1786;DHT22;890;48.158;11.540;2023-07-09T08:25:57;29.60;48.50
1786;DHT22;890;48.158;11.540;2023-07-09T08:28:23;29.70;48.10
1786;DHT22;890;48.158;11.540;2023-07-09T08:30:52;29.70;48.30
1786;DHT22;890;48.158;11.540;2023-07-09T08:33:18;29.70;48.00
1786;DHT22;890;48.158;11.540;2023-07-09T08:35:44;29.80;48.00
1786;DHT22;890;48.158;11.540;2023-07-09T08:38:10;29.90;47.60
1786;DHT22;890;48.158;11.540;2023-07-09T08:40:43;30.10;47.40
1786;DHT22;890;48.158;11.540;2023-07-09T08:48:39;30.20;46.60
1786;DHT22;890;48.158;11.540;2023-07-09T08:56:22;30.40;45.00
1786;DHT22;890;48.158;11.540;2023-07-09T08:58:50;30.50;44.80
1786;DHT22;890;48.158;11.540;2023-07-09T09:01:23;30.60;44.60
1786;DHT22;890;48.158;11.540;2023-07-09T09:03:52;30.70;44.20
1786;DHT22;890;48.158;11.540;2023-07-09T09:06:21;30.60;44.40
1786;DHT22;890;48.158;11.540;2023-07-09T09:11:25;30.70;43.50
1786;DHT22;890;48.158;11.540;2023-07-09T09:13:57;30.80;43.10
1786;DHT22;890;48.158;11.540;2023-07-09T09:16:29;30.80;43.00
1786;DHT22;890;48.158;11.540;2023-07-09T09:18:58;30.90;42.80
1786;DHT22;890;48.158;11.540;2023-07-09T09:21:32;31.00;42.70
1786;DHT22;890;48.158;11.540;2023-07-09T09:24:14;31.00;42.70
1786;DHT22;890;48.158;11.540;2023-07-09T09:26:42;31.00;42.30
1786;DHT22;890;48.158;11.540;2023-07-09T09:29:15;30.80;42.20
1786;DHT22;890;48.158;11.540;2023-07-09T09:31:43;30.80;41.90
1786;DHT22;890;48.158;11.540;2023-07-09T09:34:21;30.90;41.90
1786;DHT22;890;48.158;11.540;2023-07-09T09:36:47;30.80;42.50
1786;DHT22;890;48.158;11.540;2023-07-09T09:39:13;30.90;42.20
1786;DHT22;890;48.158;11.540;2023-07-09T09:41:39;31.00;42.20
1786;DHT22;890;48.158;11.540;2023-07-09T09:44:14;31.20;42.10
1786;DHT22;890;48.158;11.540;2023-07-09T09:46:42;31.30;41.90
1786;DHT22;890;48.158;11.540;2023-07-09T09:49:10;31.30;42.00
1786;DHT22;890;48.158;11.540;2023-07-09T09:51:39;31.40;41.90
1786;DHT22;890;48.158;11.540;2023-07-09T09:54:17;31.60;41.30
1786;DHT22;890;48.158;11.540;2023-07-09T09:56:43;31.80;40.70
1786;DHT22;890;48.158;11.540;2023-07-09T09:59:27;32.00;40.80
1786;DHT22;890;48.158;11.540;2023-07-09T10:01:59;32.30;40.40
1786;DHT22;890;48.158;11.540;2023-07-09T10:04:25;32.40;40.00
1786;DHT22;890;48.158;11.540;2023-07-09T10:06:56;32.60;40.80
1786;DHT22;890;48.158;11.540;2023-07-09T10:12:25;34.20;43.70
1786;DHT22;890;48.158;11.540;2023-07-09T10:15:11;35.70;43.00
1786;DHT22;890;48.158;11.540;2023-07-09T10:17:53;37.00;41.00
1786;DHT22;890;48.158;11.540;2023-07-09T10:20:43;37.90;39.90
1786;DHT22;890;48.158;11.540;2023-07-09T10:25:54;39.20;38.60
1786;DHT22;890;48.158;11.540;2023-07-09T10:34:05;40.60;34.00
1786;DHT22;890;48.158;11.540;2023-07-09T10:39:33;41.10;32.10
1786;DHT22;890;48.158;11.540;2023-07-09T10:42:01;41.50;31.30
1786;DHT22;890;48.158;11.540;2023-07-09T10:44:36;41.70;30.00
1786;DHT22;890;48.158;11.540;2023-07-09T10:47:07;41.80;29.40
1786;DHT22;890;48.158;11.540;2023-07-09T10:49:38;42.20;29.10
1786;DHT22;890;48.158;11.540;2023-07-09T10:55:04;42.20;28.40
1786;DHT22;890;48.158;11.540;2023-07-09T11:00:17;41.90;28.20
1786;DHT22;890;48.158;11.540;2023-07-09T11:02:44;42.10;28.20
1786;DHT22;890;48.158;11.540;2023-07-09T11:05:11;42.60;27.50
1786;DHT22;890;48.158;11.540;2023-07-09T11:07:56;42.70;27.10
1786;DHT22;890;48.158;11.540;2023-07-09T11:10:37;41.80;26.70
1786;DHT22;890;48.158;11.540;2023-07-09T11:13:11;41.50;27.20
1786;DHT22;890;48.158;11.540;2023-07-09T11:15:41;41.30;27.30
1786;DHT22;890;48.158;11.540;2023-07-09T11:18:20;40.70;27.60
1786;DHT22;890;48.158;11.540;2023-07-09T11:21:00;40.80;27.60
1786;DHT22;890;48.158;11.540;2023-07-09T11:23:26;40.90;27.20
1786;DHT22;890;48.158;11.540;2023-07-09T11:26:12;41.40;27.20
1786;DHT22;890;48.158;11.540;2023-07-09T11:28:40;41.90;26.70
1786;DHT22;890;48.158;11.540;2023-07-09T11:33:47;42.40;25.80
1786;DHT22;890;48.158;11.540;2023-07-09T11:36:23;42.60;25.20
1786;DHT22;890;48.158;11.540;2023-07-09T11:38:49;42.80;25.20
1786;DHT22;890;48.158;11.540;2023-07-09T11:41:26;43.00;25.50
1786;DHT22;890;48.158;11.540;2023-07-09T11:44:45;43.00;24.70
1786;DHT22;890;48.158;11.540;2023-07-09T11:52:57;43.30;25.10
1786;DHT22;890;48.158;11.540;2023-07-09T11:55:29;43.30;25.00
1786;DHT22;890;48.158;11.540;2023-07-09T11:57:59;42.90;25.00
1786;DHT22;890;48.158;11.540;2023-07-09T12:00:28;41.70;25.30
1786;DHT22;890;48.158;11.540;2023-07-09T12:02:54;40.80;25.70
1786;DHT22;890;48.158;11.540;2023-07-09T12:05:25;40.00;26.00
1786;DHT22;890;48.158;11.540;2023-07-09T12:07:52;39.20;26.30
1786;DHT22;890;48.158;11.540;2023-07-09T12:10:22;38.40;26.70
1786;DHT22;890;48.158;11.540;2023-07-09T12:12:53;37.60;27.30
1786;DHT22;890;48.158;11.540;2023-07-09T12:15:22;37.00;27.70
1786;DHT22;890;48.158;11.540;2023-07-09T12:18:02;36.30;28.20
1786;DHT22;890;48.158;11.540;2023-07-09T12:20:31;35.90;28.80
1786;DHT22;890;48.158;11.540;2023-07-09T12:22:57;35.60;28.90
1786;DHT22;890;48.158;11.540;2023-07-09T12:25:28;35.60;29.10
1786;DHT22;890;48.158;11.540;2023-07-09T12:27:57;36.10;29.20
1786;DHT22;890;48.158;11.540;2023-07-09T12:30:23;36.90;29.10
1786;DHT22;890;48.158;11.540;2023-07-09T12:32:50;37.50;28.90
1786;DHT22;890;48.158;11.540;2023-07-09T12:35:18;38.10;28.40
1786;DHT22;890;48.158;11.540;2023-07-09T12:37:46;39.00;27.80
1786;DHT22;890;48.158;11.540;2023-07-09T12:40:23;39.30;27.40
1786;DHT22;890;48.158;11.540;2023-07-09T12:42:53;39.80;27.20
1786;DHT22;890;48.158;11.540;2023-07-09T12:45:20;40.20;27.20
1786;DHT22;890;48.158;11.540;2023-07-09T12:47:48;39.70;27.10
1786;DHT22;890;48.158;11.540;2023-07-09T12:50:27;39.10;27.40
1786;DHT22;890;48.158;11.540;2023-07-09T12:52:55;39.30;27.60
1786;DHT22;890;48.158;11.540;2023-07-09T12:55:27;39.50;27.70
1786;DHT22;890;48.158;11.540;2023-07-09T12:57:59;39.40;27.80
1786;DHT22;890;48.158;11.540;2023-07-09T13:00:31;39.20;27.80
1786;DHT22;890;48.158;11.540;2023-07-09T13:02:59;38.80;28.00
1786;DHT22;890;48.158;11.540;2023-07-09T13:05:26;38.60;27.90
1786;DHT22;890;48.158;11.540;2023-07-09T13:07:59;38.00;28.10
1786;DHT22;890;48.158;11.540;2023-07-09T13:10:28;37.60;28.20
1786;DHT22;890;48.158;11.540;2023-07-09T13:12:56;37.40;28.30
1786;DHT22;890;48.158;11.540;2023-07-09T13:18:04;36.80;28.60
1786;DHT22;890;48.158;11.540;2023-07-09T13:20:31;36.60;28.90
1786;DHT22;890;48.158;11.540;2023-07-09T13:22:58;36.40;29.10
1786;DHT22;890;48.158;11.540;2023-07-09T13:25:24;36.10;29.30
1786;DHT22;890;48.158;11.540;2023-07-09T13:27:50;36.10;29.60
1786;DHT22;890;48.158;11.540;2023-07-09T13:30:15;36.00;29.70
1786;DHT22;890;48.158;11.540;2023-07-09T13:32:41;35.90;29.60
1786;DHT22;890;48.158;11.540;2023-07-09T13:35:15;35.90;29.90
1786;DHT22;890;48.158;11.540;2023-07-09T13:37:42;35.80;30.00
1786;DHT22;890;48.158;11.540;2023-07-09T13:40:10;35.70;30.00
1786;DHT22;890;48.158;11.540;2023-07-09T13:42:36;35.50;30.10
1786;DHT22;890;48.158;11.540;2023-07-09T13:45:02;35.40;30.20
1786;DHT22;890;48.158;11.540;2023-07-09T13:47:27;35.20;30.40
1786;DHT22;890;48.158;11.540;2023-07-09T13:49:53;35.00;30.70
1786;DHT22;890;48.158;11.540;2023-07-09T13:52:22;34.90;31.10
1786;DHT22;890;48.158;11.540;2023-07-09T13:54:49;34.90;31.10
1786;DHT22;890;48.158;11.540;2023-07-09T13:57:17;34.80;30.90
1786;DHT22;890;48.158;11.540;2023-07-09T13:59:44;34.80;31.00
1786;DHT22;890;48.158;11.540;2023-07-09T14:02:26;34.90;30.80
1786;DHT22;890;48.158;11.540;2023-07-09T14:05:03;35.00;30.80
1786;DHT22;890;48.158;11.540;2023-07-09T14:07:35;35.10;31.00
1786;DHT22;890;48.158;11.540;2023-07-09T14:10:06;32.50;29.80
1786;DHT22;890;48.158;11.540;2023-07-09T14:12:32;35.10;31.20
1786;DHT22;890;48.158;11.540;2023-07-09T14:15:00;35.20;31.00
1786;DHT22;890;48.158;11.540;2023-07-09T14:17:26;35.10;31.20
1786;DHT22;890;48.158;11.540;2023-07-09T14:19:53;35.10;32.00
1786;DHT22;890;48.158;11.540;2023-07-09T14:22:24;35.20;31.20
1786;DHT22;890;48.158;11.540;2023-07-09T14:24:51;35.10;30.90
1786;DHT22;890;48.158;11.540;2023-07-09T14:27:17;35.10;31.30
1786;DHT22;890;48.158;11.540;2023-07-09T14:29:43;35.10;31.20
1786;DHT22;890;48.158;11.540;2023-07-09T14:34:52;35.00;31.10
1786;DHT22;890;48.158;11.540;2023-07-09T14:37:17;35.00;31.10
1786;DHT22;890;48.158;11.540;2023-07-09T14:39:43;35.10;30.80
1786;DHT22;890;48.158;11.540;2023-07-09T14:42:12;35.00;30.80
1786;DHT22;890;48.158;11.540;2023-07-09T14:44:39;34.90;30.90
1786;DHT22;890;48.158;11.540;2023-07-09T14:47:14;35.00;30.80
1786;DHT22;890;48.158;11.540;2023-07-09T14:49:40;35.00;30.60
1786;DHT22;890;48.158;11.540;2023-07-09T14:52:13;35.20;30.70
1786;DHT22;890;48.158;11.540;2023-07-09T14:54:39;35.10;30.60
1786;DHT22;890;48.158;11.540;2023-07-09T14:57:15;35.10;30.80
1786;DHT22;890;48.158;11.540;2023-07-09T14:59:43;34.90;30.80
1786;DHT22;890;48.158;11.540;2023-07-09T15:02:40;35.00;30.70
1786;DHT22;890;48.158;11.540;2023-07-09T15:05:19;34.80;30.60
1786;DHT22;890;48.158;11.540;2023-07-09T15:07:46;34.70;30.70
1786;DHT22;890;48.158;11.540;2023-07-09T15:10:16;34.70;30.60
1786;DHT22;890;48.158;11.540;2023-07-09T15:12:43;34.50;31.00
1786;DHT22;890;48.158;11.540;2023-07-09T15:15:27;34.70;31.10
1786;DHT22;890;48.158;11.540;2023-07-09T15:17:58;34.80;30.90
1786;DHT22;890;48.158;11.540;2023-07-09T15:20:28;34.90;30.90
1786;DHT22;890;48.158;11.540;2023-07-09T15:22:56;34.90;30.80
1786;DHT22;890;48.158;11.540;2023-07-09T15:25:24;34.90;30.80
1786;DHT22;890;48.158;11.540;2023-07-09T15:27:51;35.00;31.00
1786;DHT22;890;48.158;11.540;2023-07-09T15:30:22;35.00;31.00
1786;DHT22;890;48.158;11.540;2023-07-09T15:32:49;34.90;30.90
1786;DHT22;890;48.158;11.540;2023-07-09T15:35:16;34.80;31.00
1786;DHT22;890;48.158;11.540;2023-07-09T15:37:43;34.70;31.20
1786;DHT22;890;48.158;11.540;2023-07-09T15:40:24;34.70;31.30
1786;DHT22;890;48.158;11.540;2023-07-09T15:42:56;34.60;31.50
1786;DHT22;890;48.158;11.540;2023-07-09T15:45:22;34.60;31.80
1786;DHT22;890;48.158;11.540;2023-07-09T15:47:50;34.70;31.60
1786;DHT22;890;48.158;11.540;2023-07-09T15:50:25;34.70;31.40
1786;DHT22;890;48.158;11.540;2023-07-09T15:52:52;34.60;31.30
1786;DHT22;890;48.158;11.540;2023-07-09T15:55:20;34.70;31.60
1786;DHT22;890;48.158;11.540;2023-07-09T15:57:48;34.50;32.40
1786;DHT22;890;48.158;11.540;2023-07-09T16:00:23;34.30;31.90
1786;DHT22;890;48.158;11.540;2023-07-09T16:02:50;34.20;32.00
1786;DHT22;890;48.158;11.540;2023-07-09T16:05:23;34.20;32.20
1786;DHT22;890;48.158;11.540;2023-07-09T16:07:50;34.20;32.30
1786;DHT22;890;48.158;11.540;2023-07-09T16:10:16;34.10;32.30
1786;DHT22;890;48.158;11.540;2023-07-09T16:12:42;34.00;32.50
1786;DHT22;890;48.158;11.540;2023-07-09T16:15:12;34.00;32.40
1786;DHT22;890;48.158;11.540;2023-07-09T16:17:42;34.10;32.40
1786;DHT22;890;48.158;11.540;2023-07-09T16:20:13;34.10;32.50
1786;DHT22;890;48.158;11.540;2023-07-09T16:22:41;34.20;32.40
1786;DHT22;890;48.158;11.540;2023-07-09T16:25:22;34.10;32.20
1786;DHT22;890;48.158;11.540;2023-07-09T16:27:48;33.90;32.40
1786;DHT22;890;48.158;11.540;2023-07-09T16:30:24;33.80;32.50
1786;DHT22;890;48.158;11.540;2023-07-09T16:32:50;33.70;32.50
1786;DHT22;890;48.158;11.540;2023-07-09T16:35:19;33.60;32.70
1786;DHT22;890;48.158;11.540;2023-07-09T16:37:46;33.50;32.60
1786;DHT22;890;48.158;11.540;2023-07-09T16:40:21;33.60;32.70
1786;DHT22;890;48.158;11.540;2023-07-09T16:42:48;33.70;32.60
1786;DHT22;890;48.158;11.540;2023-07-09T16:45:16;34.00;32.40
1786;DHT22;890;48.158;11.540;2023-07-09T16:47:43;34.10;32.90
1786;DHT22;890;48.158;11.540;2023-07-09T16:50:14;34.40;31.80
1786;DHT22;890;48.158;11.540;2023-07-09T16:52:42;34.70;31.50
1786;DHT22;890;48.158;11.540;2023-07-09T16:55:12;34.90;31.50
1786;DHT22;890;48.158;11.540;2023-07-09T16:57:38;35.00;31.30
1786;DHT22;890;48.158;11.540;2023-07-09T17:00:21;35.00;31.20
1786;DHT22;890;48.158;11.540;2023-07-09T17:02:48;35.00;31.10